Time;durP1;ratioP1;P1;durP2;ratioP2;P2;SDS_P1;SDS_P2;PMS_P1;PMS_P2;Temp;Humidity;BMP_temperature;BMP_pressure;BME280_temperature;BME280_humidity;BME280_pressure;Samples;Min_cycle;Max_cycle;Signal;HPM_P1;HPM_P2
2023/09/22 00:01:40;;;;;;;17.23;6.03;;;24.90;67.80;;;;;;5116002;28;20035;-72
2023/09/22 00:04:05;;;;;;;17.35;6.70;;;24.90;68.00;;;;;;5115855;28;20388;-75
2023/09/22 00:06:31;;;;;;;18.08;6.22;;;24.80;68.10;;;;;;5115869;28;20482;-75
2023/09/22 00:08:57;;;;;;;22.30;6.57;;;24.80;68.20;;;;;;5122405;22;20473;-74
2023/09/22 00:11:23;;;;;;;15.77;6.00;;;24.80;68.40;;;;;;5115942;28;20109;-76
2023/09/22 00:13:49;;;;;;;21.13;5.90;;;24.80;68.50;;;;;;5115817;28;20099;-74
2023/09/22 00:16:14;;;;;;;12.30;5.57;;;24.80;68.70;;;;;;5115772;28;20482;-74
2023/09/22 00:18:40;;;;;;;16.17;5.75;;;24.70;68.80;;;;;;5115871;28;20069;-76
2023/09/22 00:21:06;;;;;;;15.75;6.03;;;24.70;69.00;;;;;;5115795;28;20035;-76
2023/09/22 00:23:32;;;;;;;19.98;6.22;;;24.70;69.20;;;;;;5115870;28;20030;-75
2023/09/22 00:25:58;;;;;;;14.68;5.90;;;24.70;69.10;;;;;;5115814;28;20043;-75
2023/09/22 00:28:24;;;;;;;19.63;6.68;;;24.70;69.30;;;;;;5115627;28;20031;-75
2023/09/22 00:30:50;;;;;;;17.70;5.53;;;24.70;69.50;;;;;;5115721;28;20533;-72
2023/09/22 00:33:15;;;;;;;16.98;6.50;;;24.80;69.70;;;;;;5115284;28;20493;-74
2023/09/22 00:35:41;;;;;;;14.70;6.03;;;24.80;69.80;;;;;;5115177;28;20051;-75
2023/09/22 00:38:07;;;;;;;19.02;6.57;;;24.70;70.00;;;;;;5115517;28;20030;-75
2023/09/22 00:40:32;;;;;;;16.85;6.72;;;24.70;70.00;;;;;;5115400;28;20036;-75
2023/09/22 00:43:06;;;;;;;18.90;6.63;;;24.70;70.00;;;;;;5115262;28;20024;-75
2023/09/22 00:45:32;;;;;;;20.13;6.25;;;24.70;70.00;;;;;;5096883;28;20506;-75
2023/09/22 00:47:57;;;;;;;18.45;6.10;;;24.70;70.40;;;;;;5115056;28;20028;-74
2023/09/22 00:50:23;;;;;;;20.00;6.40;;;24.70;70.00;;;;;;5115306;28;20086;-75
2023/09/22 00:52:49;;;;;;;20.15;6.35;;;24.80;70.10;;;;;;5114935;28;20036;-75
2023/09/22 00:55:15;;;;;;;17.75;7.07;;;24.80;70.20;;;;;;5114036;28;20044;-76
2023/09/22 00:57:41;;;;;;;21.98;6.68;;;24.80;70.10;;;;;;5114723;28;20073;-74
2023/09/22 01:00:08;;;;;;;19.55;6.93;;;24.80;70.10;;;;;;5115070;28;20038;-75
2023/09/22 01:02:34;;;;;;;20.17;6.78;;;24.80;70.20;;;;;;5114918;28;20382;-75
2023/09/22 01:05:00;;;;;;;16.73;6.88;;;24.80;70.40;;;;;;5115147;28;20036;-75
2023/09/22 01:07:26;;;;;;;15.80;6.90;;;24.80;70.50;;;;;;5114681;28;20403;-75
2023/09/22 01:09:52;;;;;;;20.80;6.65;;;24.70;70.60;;;;;;5114886;28;20039;-75
2023/09/22 01:12:18;;;;;;;16.77;6.13;;;24.70;70.80;;;;;;5112296;28;20032;-73
2023/09/22 01:14:44;;;;;;;21.27;6.93;;;24.70;70.80;;;;;;5114178;28;20070;-74
2023/09/22 01:17:10;;;;;;;21.02;6.90;;;24.70;71.30;;;;;;5114896;28;20118;-75
2023/09/22 01:19:36;;;;;;;22.27;7.45;;;24.70;71.40;;;;;;5114776;28;20028;-75
2023/09/22 01:22:04;;;;;;;16.50;7.00;;;24.70;71.30;;;;;;5096386;28;20040;-75
2023/09/22 01:24:29;;;;;;;22.35;7.03;;;24.70;71.50;;;;;;5131900;28;20059;-75
2023/09/22 01:26:55;;;;;;;24.60;7.07;;;24.70;71.40;;;;;;5114411;28;20320;-73
2023/09/22 01:29:21;;;;;;;21.13;6.55;;;24.70;71.30;;;;;;5096209;28;20027;-74
2023/09/22 01:31:47;;;;;;;20.52;6.28;;;24.70;71.60;;;;;;5096071;28;20344;-75
2023/09/22 01:34:15;;;;;;;22.98;7.18;;;24.80;71.70;;;;;;5114385;28;20114;-75
2023/09/22 01:36:41;;;;;;;21.60;7.18;;;24.80;71.90;;;;;;5114335;28;20074;-75
2023/09/22 01:39:09;;;;;;;20.50;6.93;;;24.80;72.30;;;;;;5114383;28;20059;-76
2023/09/22 01:41:35;;;;;;;20.55;6.60;;;24.80;72.70;;;;;;5114479;28;20036;-75
2023/09/22 01:44:01;;;;;;;19.38;6.72;;;24.80;73.20;;;;;;5114031;28;20089;-76
2023/09/22 01:46:27;;;;;;;20.00;7.95;;;24.80;73.30;;;;;;5114175;28;20024;-74
2023/09/22 01:48:52;;;;;;;27.23;7.55;;;24.80;73.80;;;;;;5114119;28;20441;-74
2023/09/22 01:51:18;;;;;;;18.48;7.38;;;24.80;74.00;;;;;;5114240;28;20055;-75
2023/09/22 01:53:44;;;;;;;18.60;7.10;;;24.90;74.20;;;;;;5114148;28;20038;-76
2023/09/22 01:56:09;;;;;;;21.92;7.18;;;24.80;74.30;;;;;;5113817;28;20047;-75
2023/09/22 01:58:35;;;;;;;17.20;6.88;;;24.80;74.10;;;;;;5114036;28;20110;-74
2023/09/22 02:01:01;;;;;;;20.23;7.07;;;24.80;74.20;;;;;;5114362;28;20110;-76
2023/09/22 02:03:27;;;;;;;20.80;7.35;;;24.80;74.40;;;;;;5113887;28;20032;-74
2023/09/22 02:05:53;;;;;;;21.40;7.90;;;24.80;74.70;;;;;;5114090;28;20047;-74
2023/09/22 02:08:19;;;;;;;19.83;8.07;;;24.70;74.70;;;;;;5113603;28;20040;-76
2023/09/22 02:10:47;;;;;;;18.30;7.70;;;24.70;75.40;;;;;;5113944;28;20422;-74
2023/09/22 02:13:13;;;;;;;24.58;8.10;;;24.70;75.20;;;;;;5113569;28;20031;-75
2023/09/22 02:15:38;;;;;;;31.23;8.57;;;24.70;75.40;;;;;;5113973;28;20073;-75
2023/09/22 02:18:04;;;;;;;24.92;8.93;;;24.80;76.20;;;;;;5114072;28;20502;-75
2023/09/22 02:20:30;;;;;;;24.27;8.32;;;24.80;76.40;;;;;;5129992;28;20036;-76
2023/09/22 02:22:56;;;;;;;27.02;9.07;;;24.80;77.10;;;;;;5114416;28;20066;-75
2023/09/22 02:25:23;;;;;;;29.60;8.88;;;24.90;78.30;;;;;;5113469;28;20036;-75
2023/09/22 02:27:53;;;;;;;22.75;8.25;;;24.90;78.00;;;;;;5113509;28;20024;-75
2023/09/22 02:30:20;;;;;;;36.30;9.80;;;24.90;78.50;;;;;;5113181;28;20035;-74
2023/09/22 02:32:50;;;;;;;27.40;9.23;;;25.00;78.80;;;;;;5113497;28;20032;-75
2023/09/22 02:35:22;;;;;;;31.20;9.70;;;25.00;79.40;;;;;;5113199;28;20058;-75
2023/09/22 02:37:49;;;;;;;27.05;10.18;;;25.00;80.20;;;;;;5112997;28;20032;-75
2023/09/22 02:40:15;;;;;;;33.10;10.02;;;25.00;80.60;;;;;;5113097;28;20031;-75
2023/09/22 02:42:42;;;;;;;30.25;10.32;;;25.00;81.10;;;;;;5113108;28;20066;-74
2023/09/22 02:45:11;;;;;;;29.50;10.18;;;25.10;81.50;;;;;;5112694;28;20394;-75
2023/09/22 02:47:41;;;;;;;28.88;11.45;;;25.00;82.10;;;;;;5112914;28;20137;-76
2023/09/22 02:50:10;;;;;;;30.52;10.77;;;25.10;82.20;;;;;;5113092;28;20497;-75
2023/09/22 02:52:36;;;;;;;26.88;10.57;;;25.10;82.70;;;;;;5112925;28;20113;-74
2023/09/22 02:55:03;;;;;;;34.75;11.82;;;25.10;83.10;;;;;;5112616;28;20085;-75
2023/09/22 02:57:29;;;;;;;30.48;11.95;;;25.00;83.60;;;;;;5112743;28;20028;-75
2023/09/22 02:59:54;;;;;;;27.55;11.00;;;25.00;83.90;;;;;;5112496;28;20444;-74
2023/09/22 03:02:21;;;;;;;31.02;10.50;;;25.00;84.30;;;;;;5112746;28;20124;-75
2023/09/22 03:04:47;;;;;;;29.10;10.25;;;25.10;84.60;;;;;;5112789;28;20024;-75
2023/09/22 03:07:13;;;;;;;33.60;11.32;;;25.10;84.80;;;;;;5112380;28;20062;-75
2023/09/22 03:09:39;;;;;;;28.45;10.63;;;25.00;85.10;;;;;;5112780;28;20035;-74
2023/09/22 03:12:05;;;;;;;32.83;10.88;;;25.10;85.40;;;;;;5112634;28;20069;-74
2023/09/22 03:14:31;;;;;;;31.20;10.57;;;25.00;85.70;;;;;;5112616;28;20059;-76
2023/09/22 03:16:57;;;;;;;26.73;11.02;;;25.00;86.00;;;;;;5118167;28;20039;-75
2023/09/22 03:19:23;;;;;;;37.10;11.77;;;25.10;86.40;;;;;;5117922;28;20042;-74
2023/09/22 03:21:49;;;;;;;29.67;11.18;;;25.10;86.60;;;;;;5112502;28;20442;-76
2023/09/22 03:24:15;;;;;;;32.50;11.57;;;25.10;86.70;;;;;;5112630;28;20487;-75
2023/09/22 03:26:41;;;;;;;31.92;10.98;;;25.00;86.90;;;;;;5112875;28;20039;-75
2023/09/22 03:29:07;;;;;;;28.65;11.32;;;25.10;87.20;;;;;;5093941;28;20479;-75
2023/09/22 03:31:32;;;;;;;32.58;11.43;;;25.10;87.20;;;;;;5112569;28;20032;-74
2023/09/22 03:33:58;;;;;;;27.80;10.88;;;25.10;87.30;;;;;;5112815;28;20130;-75
2023/09/22 03:36:24;;;;;;;33.92;11.55;;;25.10;87.30;;;;;;5112497;28;20047;-75
2023/09/22 03:38:51;;;;;;;38.50;11.55;;;25.10;87.30;;;;;;5112492;28;20039;-75
2023/09/22 03:41:18;;;;;;;30.48;10.68;;;25.10;87.30;;;;;;5094034;28;20031;-76
2023/09/22 03:43:44;;;;;;;29.55;10.50;;;25.10;87.20;;;;;;5112063;28;20510;-74
2023/09/22 03:46:10;;;;;;;40.35;11.93;;;25.10;87.00;;;;;;5112332;28;20372;-75
2023/09/22 03:48:37;;;;;;;30.50;11.32;;;25.10;87.40;;;;;;5112305;28;20540;-75
2023/09/22 03:51:03;;;;;;;30.88;10.75;;;25.10;87.20;;;;;;5111983;28;20043;-76
2023/09/22 03:53:29;;;;;;;27.67;10.98;;;25.10;87.50;;;;;;5112332;28;20454;-74
2023/09/22 03:55:55;;;;;;;26.83;11.20;;;25.10;87.40;;;;;;5112153;28;20067;-75
2023/09/22 03:58:21;;;;;;;24.90;10.32;;;25.10;87.30;;;;;;5112436;28;20058;-75
2023/09/22 04:00:47;;;;;;;29.85;10.82;;;25.10;87.40;;;;;;5112549;28;20395;-75
2023/09/22 04:03:13;;;;;;;30.65;9.98;;;25.10;87.40;;;;;;5112745;28;20027;-74
2023/09/22 04:05:39;;;;;;;35.33;11.02;;;25.10;87.50;;;;;;5112216;28;20050;-76
2023/09/22 04:08:05;;;;;;;31.30;11.00;;;25.10;87.50;;;;;;5111986;28;20127;-77
2023/09/22 04:10:32;;;;;;;26.88;10.30;;;25.10;87.40;;;;;;5112160;28;20162;-76
2023/09/22 04:12:58;;;;;;;28.65;9.63;;;25.10;87.50;;;;;;5112330;28;20036;-76
2023/09/22 04:15:24;;;;;;;28.70;9.68;;;25.10;87.40;;;;;;5119477;28;20123;-75
2023/09/22 04:17:51;;;;;;;27.83;10.85;;;25.10;87.50;;;;;;5112033;28;20039;-75
2023/09/22 04:20:28;;;;;;;29.08;10.85;;;25.10;87.40;;;;;;5112044;28;20046;-75
2023/09/22 04:22:58;;;;;;;27.25;10.18;;;25.10;87.30;;;;;;5111936;28;20024;-75
2023/09/22 04:25:31;;;;;;;28.52;11.00;;;25.10;87.80;;;;;;5111925;28;20096;-76
2023/09/22 04:28:07;;;;;;;37.10;10.90;;;25.10;87.50;;;;;;5111880;28;20106;-74
2023/09/22 04:30:40;;;;;;;29.30;10.50;;;25.10;86.90;;;;;;5113377;28;20474;-76
2023/09/22 04:33:06;;;;;;;24.65;9.73;;;25.10;87.60;;;;;;5097161;28;20467;-76
2023/09/22 04:35:32;;;;;;;24.00;10.50;;;25.10;86.90;;;;;;5115448;28;20040;-76
2023/09/22 04:37:59;;;;;;;28.95;9.45;;;25.20;87.10;;;;;;5115573;28;20047;-75
2023/09/22 04:40:29;;;;;;;36.58;11.27;;;25.10;86.90;;;;;;5116171;28;20032;-76
2023/09/22 04:42:55;;;;;;;31.35;10.75;;;25.10;86.90;;;;;;5115220;28;20023;-74
2023/09/22 04:45:24;;;;;;;30.60;10.15;;;25.20;87.10;;;;;;5097106;28;20035;-75
2023/09/22 04:47:53;;;;;;;26.60;11.05;;;25.20;87.00;;;;;;5115706;28;20438;-75
2023/09/22 04:50:19;;;;;;;31.48;11.00;;;25.20;87.50;;;;;;5115845;28;20108;-75
2023/09/22 04:52:46;;;;;;;28.60;11.63;;;25.20;87.40;;;;;;5115362;28;20482;-76
2023/09/22 04:55:12;;;;;;;32.85;10.88;;;25.20;87.30;;;;;;5115162;28;20131;-76
2023/09/22 04:57:38;;;;;;;24.80;10.77;;;25.20;87.40;;;;;;5096632;28;20154;-77
2023/09/22 05:00:12;;;;;;;30.02;9.90;;;25.20;87.30;;;;;;5114786;28;20140;-76
2023/09/22 05:02:38;;;;;;;27.05;9.93;;;25.20;87.50;;;;;;5115033;28;20023;-75
2023/09/22 05:05:04;;;;;;;31.85;10.75;;;25.20;87.30;;;;;;5114955;28;20387;-78
2023/09/22 05:07:30;;;;;;;31.08;9.82;;;25.20;87.30;;;;;;5114811;28;20050;-75
2023/09/22 05:09:59;;;;;;;33.83;11.07;;;25.20;87.40;;;;;;5115050;28;20140;-76
2023/09/22 05:12:25;;;;;;;29.05;9.73;;;25.20;87.40;;;;;;5132138;28;20047;-76
2023/09/22 05:14:52;;;;;;;29.92;9.68;;;25.20;87.20;;;;;;5116465;28;20442;-76
2023/09/22 05:17:18;;;;;;;30.85;10.32;;;25.20;87.30;;;;;;5115138;28;20024;-77
2023/09/22 05:19:44;;;;;;;31.40;10.07;;;25.30;87.40;;;;;;5114676;28;20038;-78
2023/09/22 05:22:10;;;;;;;24.80;9.75;;;25.30;87.60;;;;;;5114919;28;20035;-78
2023/09/22 05:24:36;;;;;;;26.95;10.25;;;25.30;87.80;;;;;;5096797;28;20509;-77
2023/09/22 05:27:04;;;;;;;34.90;10.95;;;25.30;87.70;;;;;;5115349;28;20579;-79
2023/09/22 05:29:30;;;;;;;29.40;10.25;;;25.30;87.70;;;;;;5096584;28;20036;-80
2023/09/22 05:31:56;;;;;;;28.67;10.32;;;25.30;87.60;;;;;;5114916;28;20030;-80
2023/09/22 05:34:22;;;;;;;24.10;10.02;;;25.30;87.60;;;;;;5114753;28;20174;-80
2023/09/22 05:36:49;;;;;;;30.27;11.35;;;25.30;87.60;;;;;;5114112;28;20127;-79
2023/09/22 05:39:15;;;;;;;26.02;9.95;;;25.30;87.40;;;;;;5113895;28;20522;-78
2023/09/22 05:41:44;;;;;;;27.98;10.27;;;25.30;87.50;;;;;;5113766;28;20054;-80
2023/09/22 05:44:10;;;;;;;27.33;10.18;;;25.40;87.60;;;;;;5114508;28;20020;-78
2023/09/22 05:46:35;;;;;;;31.50;11.13;;;25.40;87.40;;;;;;5114287;28;20106;-76
2023/09/22 05:49:01;;;;;;;38.45;11.65;;;25.40;87.50;;;;;;5114135;28;20132;-77
2023/09/22 05:51:27;;;;;;;32.80;10.95;;;25.40;87.50;;;;;;5113974;28;20042;-75
2023/09/22 05:53:53;;;;;;;33.60;10.88;;;25.50;87.60;;;;;;5114016;28;20380;-77
2023/09/22 05:56:18;;;;;;;26.60;9.90;;;25.50;87.50;;;;;;5114350;28;20040;-77
2023/09/22 05:58:46;;;;;;;27.00;10.30;;;25.50;87.50;;;;;;5114269;28;20123;-76
2023/09/22 06:01:13;;;;;;;27.98;9.73;;;25.50;87.50;;;;;;5113944;28;20122;-76
2023/09/22 06:03:41;;;;;;;28.90;10.55;;;25.50;87.10;;;;;;5114152;28;20489;-77
2023/09/22 06:06:11;;;;;;;30.70;9.82;;;25.60;87.10;;;;;;5116051;28;20035;-78
2023/09/22 06:08:45;;;;;;;33.17;10.15;;;25.60;87.60;;;;;;5117488;28;20036;-78
2023/09/22 06:11:11;;;;;;;;;;;25.60;87.60;;;;;;5114757;28;20061;-79
2023/09/22 06:13:38;;;;;;;29.70;10.20;;;25.60;87.00;;;;;;5114065;28;19904;-78
2023/09/22 06:16:05;;;;;;;37.28;10.50;;;25.60;86.80;;;;;;5113836;28;20031;-82
2023/09/22 06:18:31;;;;;;;28.23;10.07;;;25.60;86.70;;;;;;5114717;28;20054;-79
2023/09/22 06:20:59;;;;;;;22.90;10.07;;;25.70;87.00;;;;;;5113959;28;20059;-82
2023/09/22 06:23:25;;;;;;;33.00;11.32;;;25.70;86.60;;;;;;5113941;28;20031;-83
2023/09/22 06:25:54;;;;;;;24.67;9.55;;;25.70;86.70;;;;;;5109434;28;20024;-75
2023/09/22 06:28:20;;;;;;;29.08;10.15;;;25.70;86.60;;;;;;5072482;28;20032;-81
2023/09/22 06:30:46;;;;;;;28.83;10.50;;;25.70;86.80;;;;;;5088407;28;20058;-79
2023/09/22 06:33:16;;;;;;;26.95;10.68;;;25.70;86.60;;;;;;5109767;28;20067;-80
2023/09/22 06:35:43;;;;;;;32.10;14.57;;;25.80;86.80;;;;;;5097666;28;20067;-78
2023/09/22 06:38:10;;;;;;;36.50;11.57;;;25.80;86.80;;;;;;5097611;28;20032;-78
2023/09/22 06:40:37;;;;;;;32.15;10.70;;;25.80;87.00;;;;;;5101061;28;20031;-80
2023/09/22 06:43:04;;;;;;;30.73;10.50;;;25.80;86.90;;;;;;5095080;28;20039;-78
2023/09/22 06:45:33;;;;;;;32.40;10.65;;;25.80;87.10;;;;;;5112903;28;20088;-78
2023/09/22 06:48:09;;;;;;;30.55;10.98;;;25.80;87.10;;;;;;5094953;28;20114;-79
2023/09/22 06:50:38;;;;;;;53.58;12.27;;;25.80;87.60;;;;;;5097644;28;20590;-78
2023/09/22 06:53:05;;;;;;;31.27;11.90;;;25.80;87.20;;;;;;5092536;28;20490;-78
2023/09/22 06:55:31;;;;;;;33.67;11.20;;;25.90;87.40;;;;;;5092486;28;20480;-78
2023/09/22 06:57:59;;;;;;;27.17;10.93;;;25.90;87.40;;;;;;5092755;28;20035;-80
2023/09/22 07:00:28;;;;;;;38.10;11.40;;;25.90;87.20;;;;;;5089405;28;20020;-79
2023/09/22 07:02:55;;;;;;;34.60;10.98;;;25.90;87.20;;;;;;5092666;28;20115;-79
2023/09/22 07:05:21;;;;;;;26.65;11.52;;;25.90;87.30;;;;;;5108496;28;20098;-76
2023/09/22 07:07:50;;;;;;;27.58;11.18;;;26.00;87.50;;;;;;5092064;28;20515;-78
2023/09/22 07:10:16;;;;;;;29.00;10.93;;;26.00;87.40;;;;;;5088257;28;20359;-77
2023/09/22 07:12:42;;;;;;;30.15;11.38;;;26.00;87.30;;;;;;5092116;28;20654;-79
2023/09/22 07:15:12;;;;;;;26.58;10.23;;;26.10;87.20;;;;;;5091107;28;20038;-79
2023/09/22 07:17:40;;;;;;;30.92;10.98;;;26.10;87.00;;;;;;5092106;28;20419;-78
2023/09/22 07:20:09;;;;;;;32.83;11.23;;;26.30;86.60;;;;;;5083833;28;20047;-79
2023/09/22 07:22:35;;;;;;;31.58;10.50;;;26.50;86.30;;;;;;5091948;28;20447;-80
2023/09/22 07:25:01;;;;;;;29.02;11.00;;;26.50;85.80;;;;;;5092325;28;20032;-79
2023/09/22 07:27:27;;;;;;;25.02;10.40;;;26.60;85.70;;;;;;5092204;28;20028;-79
2023/09/22 07:29:53;;;;;;;24.80;10.10;;;26.70;85.20;;;;;;5092882;28;20036;-84
2023/09/22 07:32:20;;;;;;;31.60;11.07;;;26.90;84.90;;;;;;5093040;28;20363;-85
2023/09/22 07:34:47;;;;;;;29.80;10.25;;;27.10;84.10;;;;;;5093175;28;20024;-85
2023/09/22 07:37:13;;;;;;;30.38;10.23;;;27.20;83.70;;;;;;5094384;28;20044;-81
2023/09/22 07:39:39;;;;;;;32.35;9.57;;;27.40;83.60;;;;;;5093094;28;20030;-80
2023/09/22 07:42:07;;;;;;;26.60;10.10;;;27.40;83.20;;;;;;5112422;28;20122;-78
2023/09/22 07:44:33;;;;;;;32.88;10.30;;;27.30;82.90;;;;;;5112957;28;20074;-79
2023/09/22 07:47:00;;;;;;;25.48;9.70;;;27.40;83.10;;;;;;5113299;28;20027;-82
2023/09/22 07:49:29;;;;;;;25.90;9.18;;;27.40;83.00;;;;;;5106170;28;20105;-82
2023/09/22 07:51:55;;;;;;;28.90;9.88;;;27.40;82.70;;;;;;5111122;28;20110;-82
2023/09/22 07:54:24;;;;;;;29.48;10.43;;;27.40;82.70;;;;;;5112893;28;20062;-81
2023/09/22 07:56:50;;;;;;;32.67;10.65;;;27.50;82.40;;;;;;5112387;28;20044;-82
2023/09/22 07:59:17;;;;;;;26.77;10.05;;;27.50;82.30;;;;;;5084598;28;20586;-81
2023/09/22 08:01:44;;;;;;;29.55;10.02;;;27.60;81.90;;;;;;5126208;28;20047;-82
2023/09/22 08:04:13;;;;;;;29.73;9.20;;;27.60;81.90;;;;;;5112863;28;20110;-83
2023/09/22 08:06:39;;;;;;;30.95;9.85;;;27.70;81.80;;;;;;5117787;28;20028;-82
2023/09/22 08:09:05;;;;;;;23.88;8.88;;;27.70;81.60;;;;;;5095215;28;20068;-82
2023/09/22 08:11:32;;;;;;;27.35;9.15;;;27.70;81.50;;;;;;5094350;28;20043;-80
2023/09/22 08:13:58;;;;;;;28.98;9.70;;;27.70;80.90;;;;;;5097500;28;20132;-81
2023/09/22 08:16:25;;;;;;;29.05;9.15;;;27.70;81.00;;;;;;5095823;28;20078;-83
2023/09/22 08:18:53;;;;;;;27.80;9.35;;;27.70;80.70;;;;;;5093619;28;20105;-80
2023/09/22 08:21:22;;;;;;;27.08;8.82;;;27.80;81.30;;;;;;5091796;28;20409;-82
2023/09/22 08:23:49;;;;;;;27.25;10.05;;;27.70;80.90;;;;;;5095420;28;20028;-80
2023/09/22 08:26:17;;;;;;;25.50;9.60;;;27.80;80.90;;;;;;5095480;28;20499;-83
2023/09/22 08:28:47;;;;;;;29.88;8.93;;;27.70;80.50;;;;;;5075461;28;20090;-81
2023/09/22 08:31:13;;;;;;;28.17;8.60;;;27.80;80.40;;;;;;5091608;28;20024;-83
2023/09/22 08:33:40;;;;;;;26.67;8.57;;;27.80;80.30;;;;;;5095829;28;20036;-80
2023/09/22 08:36:06;;;;;;;25.20;8.57;;;27.80;80.40;;;;;;5095485;28;20423;-80
2023/09/22 08:38:33;;;;;;;27.27;8.32;;;27.80;79.90;;;;;;5094421;28;20029;-81
2023/09/22 08:41:00;;;;;;;24.95;9.38;;;27.80;79.50;;;;;;5091346;28;20040;-85
2023/09/22 08:43:27;;;;;;;24.70;8.23;;;27.90;79.50;;;;;;5103289;28;20404;-81
2023/09/22 08:45:54;;;;;;;26.20;8.85;;;27.90;79.10;;;;;;5078676;28;20032;-81
2023/09/22 08:48:19;;;;;;;25.75;8.50;;;27.90;79.10;;;;;;5094845;28;20028;-83
2023/09/22 08:50:46;;;;;;;25.58;8.38;;;28.00;78.50;;;;;;5089833;28;20510;-83
2023/09/22 08:53:12;;;;;;;25.05;8.52;;;28.00;78.20;;;;;;5094955;28;20225;-82
2023/09/22 08:55:39;;;;;;;28.38;8.50;;;28.10;78.00;;;;;;5098283;28;20115;-81
2023/09/22 08:58:05;;;;;;;32.85;9.02;;;28.10;77.70;;;;;;5106211;28;20038;-80
2023/09/22 09:00:30;;;;;;;25.92;7.97;;;28.10;77.70;;;;;;5089472;28;20115;-80
2023/09/22 09:03:09;;;;;;;27.75;8.77;;;28.20;78.00;;;;;;5076380;28;20036;-77
2023/09/22 09:05:39;;;;;;;34.20;8.63;;;28.20;77.20;;;;;;5094472;28;20032;-80
2023/09/22 09:08:21;;;;;;;26.65;8.73;;;28.30;77.30;;;;;;5105569;28;20040;-81
2023/09/22 09:10:50;;;;;;;28.55;7.63;;;28.30;77.20;;;;;;5106285;28;20571;-81
2023/09/22 09:13:18;;;;;;;29.25;8.20;;;28.40;76.90;;;;;;5114128;28;20027;-82
2023/09/22 09:15:47;;;;;;;24.88;7.18;;;28.40;76.60;;;;;;5114660;28;20039;-80
2023/09/22 09:18:19;;;;;;;24.88;7.55;;;28.30;76.20;;;;;;5113621;28;20514;-79
2023/09/22 09:20:47;;;;;;;22.60;7.68;;;28.40;75.40;;;;;;5094705;28;20387;-81
2023/09/22 09:23:18;;;;;;;23.92;7.00;;;28.30;75.60;;;;;;5094567;28;20060;-80
2023/09/22 09:25:46;;;;;;;24.27;7.95;;;28.40;75.40;;;;;;5076300;28;20069;-81
2023/09/22 09:28:13;;;;;;;24.15;7.18;;;28.40;75.20;;;;;;5093375;28;20032;-78
2023/09/22 09:31:00;;;;;;;21.48;7.68;;;28.40;75.20;;;;;;5094461;28;20059;-80
2023/09/22 09:33:31;;;;;;;24.65;7.32;;;28.50;74.80;;;;;;5093880;28;20036;-81
2023/09/22 09:35:57;;;;;;;25.98;7.65;;;28.50;73.50;;;;;;5094290;28;20035;-81
2023/09/22 09:38:29;;;;;;;22.13;6.80;;;28.60;74.00;;;;;;5076275;28;20054;-79
2023/09/22 09:40:56;;;;;;;26.25;7.45;;;28.60;73.70;;;;;;5098988;28;20055;-81
2023/09/22 09:43:23;;;;;;;21.48;7.07;;;28.60;73.50;;;;;;5075807;28;20028;-81
2023/09/22 09:45:51;;;;;;;24.55;7.25;;;28.60;73.10;;;;;;5095163;28;20067;-81
2023/09/22 09:48:18;;;;;;;20.10;7.38;;;28.70;72.90;;;;;;5094088;28;20035;-80
2023/09/22 09:50:59;;;;;;;23.30;6.22;;;28.70;72.90;;;;;;5098157;28;20043;-81
2023/09/22 09:53:31;;;;;;;18.42;6.15;;;28.70;72.70;;;;;;5109901;28;20371;-80
2023/09/22 09:56:02;;;;;;;33.47;6.95;;;28.70;72.20;;;;;;5094780;28;20040;-80
2023/09/22 09:58:30;;;;;;;22.67;6.40;;;28.70;72.20;;;;;;5093435;28;20035;-79
2023/09/22 10:00:57;;;;;;;22.42;6.80;;;28.70;72.10;;;;;;5096503;28;20052;-82
2023/09/22 10:03:25;;;;;;;20.33;6.30;;;28.70;72.00;;;;;;5076394;28;20074;-80
2023/09/22 10:05:52;;;;;;;17.27;5.80;;;28.80;71.90;;;;;;5093889;28;20098;-80
2023/09/22 10:08:22;;;;;;;16.50;5.85;;;28.80;71.60;;;;;;5094629;28;20599;-81
2023/09/22 10:10:57;;;;;;;24.85;6.70;;;28.80;71.50;;;;;;5075995;28;20483;-81
2023/09/22 10:13:23;;;;;;;22.98;6.63;;;28.90;71.20;;;;;;5093078;28;20032;-82
2023/09/22 10:16:00;;;;;;;22.83;6.78;;;28.90;70.70;;;;;;5093658;28;20052;-82
2023/09/22 10:18:55;;;;;;;25.35;6.45;;;28.90;71.60;;;;;;5093067;28;20032;-80
2023/09/22 10:21:48;;;;;;;23.88;6.03;;;29.00;70.30;;;;;;5107914;28;20024;-82
2023/09/22 10:24:32;;;;;;;25.70;6.30;;;29.00;70.50;;;;;;5113740;28;20024;-81
2023/09/22 10:27:06;;;;;;;22.20;6.40;;;29.10;70.00;;;;;;5113802;28;20058;-81
2023/09/22 10:29:37;;;;;;;22.33;6.38;;;29.10;69.80;;;;;;5107528;28;20056;-81
2023/09/22 10:32:18;;;;;;;25.85;6.35;;;29.10;69.30;;;;;;5074693;28;20032;-81
2023/09/22 10:34:50;;;;;;;21.30;5.93;;;29.20;68.90;;;;;;5092904;28;20125;-78
2023/09/22 10:37:20;;;;;;;18.73;6.00;;;29.20;68.60;;;;;;5092948;28;20070;-81
2023/09/22 10:39:49;;;;;;;21.35;6.10;;;29.30;68.70;;;;;;5098436;28;20395;-80
2023/09/22 10:42:15;;;;;;;23.75;6.20;;;29.20;68.20;;;;;;5113106;28;20106;-82
2023/09/22 10:45:02;;;;;;;23.50;5.68;;;29.20;68.10;;;;;;5095261;28;20518;-81
2023/09/22 10:47:45;;;;;;;17.98;5.68;;;29.10;67.30;;;;;;5101344;28;20039;-79
2023/09/22 10:50:15;;;;;;;26.95;5.63;;;29.10;67.10;;;;;;5100236;28;20024;-83
2023/09/22 10:52:49;;;;;;;22.98;6.78;;;29.10;66.90;;;;;;5091381;28;20168;-82
2023/09/22 10:55:25;;;;;;;25.70;6.22;;;29.10;66.80;;;;;;5092316;28;20035;-81
2023/09/22 10:57:51;;;;;;;14.30;5.25;;;29.20;67.30;;;;;;5103178;28;20050;-80
2023/09/22 11:00:18;;;;;;;21.60;5.70;;;29.10;66.80;;;;;;5102940;28;20034;-82
2023/09/22 11:02:44;;;;;;;23.05;6.18;;;29.20;66.80;;;;;;5113293;28;20096;-84
2023/09/22 11:05:17;;;;;;;23.48;5.53;;;29.20;66.60;;;;;;5113518;28;20032;-84
2023/09/22 11:07:43;;;;;;;21.83;5.35;;;29.30;66.30;;;;;;5105636;28;20135;-80
2023/09/22 11:10:18;;;;;;;21.23;5.97;;;29.40;66.30;;;;;;5088001;28;20059;-83
2023/09/22 11:12:48;;;;;;;23.58;6.45;;;29.50;66.50;;;;;;5091594;28;20091;-79
2023/09/22 11:15:14;;;;;;;24.67;6.03;;;29.60;65.30;;;;;;5092559;28;20036;-83
2023/09/22 11:17:47;;;;;;;21.73;5.55;;;29.70;63.80;;;;;;5093241;28;20032;-79
2023/09/22 11:20:26;;;;;;;20.50;5.97;;;29.70;63.80;;;;;;5087538;28;20394;-81
2023/09/22 11:22:52;;;;;;;19.27;5.78;;;29.70;64.10;;;;;;5074525;28;20123;-81
2023/09/22 11:25:19;;;;;;;19.80;5.30;;;29.60;63.50;;;;;;5092795;28;20032;-80
2023/09/22 11:27:47;;;;;;;26.80;6.25;;;29.60;63.50;;;;;;5091783;28;20051;-79
2023/09/22 11:30:16;;;;;;;23.40;6.03;;;29.60;64.30;;;;;;5086932;28;20046;-79
2023/09/22 11:32:45;;;;;;;28.38;6.90;;;29.60;64.50;;;;;;5091927;28;20029;-81
2023/09/22 11:35:39;;;;;;;18.98;6.20;;;29.50;64.90;;;;;;5073662;28;20046;-81
2023/09/22 11:38:28;;;;;;;27.55;6.40;;;29.50;65.50;;;;;;5091949;28;20035;-81
2023/09/22 11:41:13;;;;;;;32.40;6.50;;;29.50;66.20;;;;;;5089902;28;20036;-81
2023/09/22 11:43:48;;;;;;;27.10;6.72;;;29.50;66.90;;;;;;5108789;28;20097;-80
2023/09/22 11:46:22;;;;;;;27.50;7.07;;;29.40;67.30;;;;;;5097354;28;20062;-83
2023/09/22 11:48:54;;;;;;;25.90;6.80;;;29.40;67.60;;;;;;5094921;28;20123;-81
2023/09/22 11:51:20;;;;;;;27.17;7.13;;;29.40;67.80;;;;;;5075073;28;20043;-80
2023/09/22 11:53:47;;;;;;;27.42;7.53;;;29.50;68.10;;;;;;5078421;28;20391;-79
2023/09/22 11:56:13;;;;;;;26.95;8.43;;;29.50;68.40;;;;;;5077198;28;20115;-82
2023/09/22 11:58:38;;;;;;;28.67;7.68;;;29.50;68.70;;;;;;5076205;28;20154;-80
2023/09/22 12:01:05;;;;;;;28.40;7.88;;;29.50;69.00;;;;;;5091456;28;20123;-80
2023/09/22 12:03:34;;;;;;;27.13;8.68;;;29.60;69.70;;;;;;5094527;28;20028;-80
2023/09/22 12:06:02;;;;;;;26.75;8.23;;;29.60;69.70;;;;;;5095813;28;20055;-81
2023/09/22 12:08:29;;;;;;;37.08;8.05;;;29.60;69.70;;;;;;5110355;28;20488;-82
2023/09/22 12:10:55;;;;;;;37.55;8.57;;;29.70;70.00;;;;;;5077000;28;20090;-80
2023/09/22 12:13:20;;;;;;;39.22;9.65;;;29.60;70.70;;;;;;5094917;28;20062;-78
2023/09/22 12:15:46;;;;;;;36.03;9.38;;;29.60;71.00;;;;;;5095731;28;20403;-78
2023/09/22 12:18:12;;;;;;;33.85;8.65;;;29.60;71.20;;;;;;5095195;28;20058;-79
2023/09/22 12:20:38;;;;;;;42.28;8.55;;;29.60;71.80;;;;;;5100538;28;20054;-81
2023/09/22 12:23:04;;;;;;;27.70;8.63;;;29.50;72.20;;;;;;5115979;28;20098;-80
2023/09/22 12:25:29;;;;;;;35.45;8.68;;;29.50;72.30;;;;;;5115338;28;20035;-80
2023/09/22 12:27:55;;;;;;;37.05;9.05;;;29.50;72.50;;;;;;5115054;28;20035;-81
2023/09/22 12:30:21;;;;;;;34.85;9.15;;;29.50;72.70;;;;;;5104439;28;20047;-81
2023/09/22 12:32:46;;;;;;;32.22;8.80;;;29.50;72.50;;;;;;5115090;28;20043;-81
2023/09/22 12:35:12;;;;;;;31.65;8.60;;;29.50;72.60;;;;;;5115737;28;20035;-81
2023/09/22 12:37:38;;;;;;;38.03;9.05;;;29.60;72.80;;;;;;5116857;28;20028;-80